Time;durP1;ratioP1;P1;durP2;ratioP2;P2;SDS_P1;SDS_P2;PMS_P1;PMS_P2;Temp;Humidity;BMP_temperature;BMP_pressure;BME280_temperature;BME280_humidity;BME280_pressure;Samples;Min_cycle;Max_cycle;Signal;HPM_P1;HPM_P2
2023/11/09 00:03:22;;;;;;;3.45;2.15;;;12.80;99.90;;;;;;10538170;28;20180;-39
2023/11/09 00:08:25;;;;;;;3.10;2.42;;;13.10;99.90;;;;;;10532805;28;20035;-40
2023/11/09 00:13:29;;;;;;;5.13;2.85;;;12.90;99.90;;;;;;10530401;28;20480;-43
2023/11/09 00:18:31;;;;;;;2.35;2.13;;;12.40;99.90;;;;;;10524558;28;20032;-36
2023/11/09 00:23:32;;;;;;;9.30;1.97;;;13.00;99.90;;;;;;10526182;28;20048;-40
2023/11/09 00:28:36;;;;;;;4.40;2.28;;;12.90;99.90;;;;;;10526611;28;20048;-41
2023/11/09 00:33:38;;;;;;;3.70;2.10;;;13.00;99.90;;;;;;10544196;28;20040;-39
2023/11/09 00:38:39;;;;;;;4.10;2.05;;;12.80;99.90;;;;;;10548358;28;20127;-35
2023/11/09 00:43:43;;;;;;;3.45;1.50;;;12.30;99.90;;;;;;10544157;28;20043;-40
2023/11/09 00:48:44;;;;;;;3.42;1.58;;;12.30;99.90;;;;;;10544834;28;20553;-35
2023/11/09 00:53:46;;;;;;;7.30;2.05;;;12.10;99.90;;;;;;10548434;28;20040;-30
2023/11/09 00:58:49;;;;;;;8.35;1.88;;;12.70;99.90;;;;;;10544558;28;20047;-37
2023/11/09 01:03:52;;;;;;;2.97;1.02;;;13.20;99.90;;;;;;10545422;28;20052;-31
2023/11/09 01:08:54;;;;;;;5.63;2.00;;;12.40;99.90;;;;;;10548558;27;20472;-34
2023/11/09 01:13:58;;;;;;;8.18;3.63;;;12.40;99.90;;;;;;10540893;28;20130;-31
2023/11/09 01:19:02;;;;;;;12.73;3.25;;;13.50;99.90;;;;;;10543064;28;20067;-47
2023/11/09 01:24:04;;;;;;;7.43;3.97;;;15.10;99.90;;;;;;10537516;28;20067;-34
2023/11/09 01:29:08;;;;;;;8.15;4.45;;;16.20;99.90;;;;;;10538504;28;20114;-37
2023/11/09 01:34:10;;;;;;;11.95;5.43;;;16.30;99.90;;;;;;10542180;28;20062;-30
2023/11/09 01:39:12;;;;;;;8.20;3.90;;;16.40;99.30;;;;;;10543177;28;20047;-30
2023/11/09 01:44:15;;;;;;;9.53;2.30;;;15.00;99.90;;;;;;10538877;28;20067;-36
2023/11/09 01:49:17;;;;;;;8.10;4.03;;;14.70;99.90;;;;;;10546183;28;20462;-32
2023/11/09 01:54:20;;;;;;;12.00;5.03;;;14.60;99.90;;;;;;10542662;28;20385;-35
2023/11/09 01:59:25;;;;;;;7.78;4.28;;;15.80;99.90;;;;;;10538140;27;20485;-31
2023/11/09 02:04:27;;;;;;;10.20;1.38;;;16.00;99.90;;;;;;10535335;28;20050;-32
2023/11/09 02:09:31;;;;;;;11.82;4.40;;;14.30;99.90;;;;;;10532406;28;20048;-33
2023/11/09 02:14:34;;;;;;;9.02;4.38;;;15.20;99.90;;;;;;10523102;28;20150;-40
2023/11/09 02:19:36;;;;;;;7.97;4.95;;;15.80;99.90;;;;;;10542778;28;20083;-29
2023/11/09 02:24:40;;;;;;;11.23;4.75;;;16.10;99.90;;;;;;10535828;28;20040;-36
2023/11/09 02:29:41;;;;;;;10.82;4.57;;;16.50;99.00;;;;;;10537311;28;20122;-39
2023/11/09 02:34:43;;;;;;;9.03;4.20;;;16.90;97.20;;;;;;10543256;28;20446;-34
2023/11/09 02:39:52;;;;;;;11.83;5.23;;;17.00;96.30;;;;;;10541066;28;20086;-31
2023/11/09 02:44:53;;;;;;;9.02;4.43;;;16.90;96.30;;;;;;10534390;28;20489;-34
2023/11/09 02:49:55;;;;;;;8.33;4.37;;;16.50;97.90;;;;;;10543950;28;20116;-33
2023/11/09 02:55:00;;;;;;;9.27;4.07;;;16.70;97.00;;;;;;10536321;28;20090;-39
2023/11/09 03:00:04;;;;;;;8.07;4.53;;;17.00;95.90;;;;;;10535807;28;20493;-38
2023/11/09 03:05:07;;;;;;;8.27;3.15;;;17.10;95.50;;;;;;10535118;28;20040;-37
2023/11/09 03:10:10;;;;;;;6.68;3.10;;;16.80;96.30;;;;;;10544107;28;20076;-35
2023/11/09 03:15:12;;;;;;;7.57;4.00;;;16.10;99.00;;;;;;10535762;28;20069;-40
2023/11/09 03:20:14;;;;;;;5.93;2.27;;;14.90;99.90;;;;;;10534950;28;20430;-35
2023/11/09 03:25:18;;;;;;;13.80;3.27;;;12.70;99.90;;;;;;10542554;28;20078;-39
2023/11/09 03:30:20;;;;;;;8.73;1.90;;;12.50;99.90;;;;;;10540874;28;20500;-34
2023/11/09 03:35:21;;;;;;;5.50;3.17;;;12.80;99.90;;;;;;10531993;28;20051;-36
2023/11/09 03:40:25;;;;;;;7.35;3.22;;;13.50;99.90;;;;;;10546328;28;20151;-40
2023/11/09 03:45:27;;;;;;;7.18;4.30;;;15.40;99.90;;;;;;10537231;28;20039;-35
2023/11/09 03:50:29;;;;;;;5.75;3.13;;;15.90;99.90;;;;;;10543297;28;20058;-36
2023/11/09 03:55:32;;;;;;;7.97;4.30;;;16.50;99.00;;;;;;10535333;28;20138;-34
2023/11/09 04:00:34;;;;;;;5.70;3.80;;;16.80;97.20;;;;;;10536919;28;20120;-42
2023/11/09 04:15:30;;;;;;;6.85;3.28;;;17.10;95.50;;;;;;10511405;27;20166;-39
2023/11/09 04:20:31;;;;;;;6.53;2.05;;;16.90;95.80;;;;;;10494260;28;20131;-38
2023/11/09 04:25:33;;;;;;;7.80;2.72;;;14.80;99.90;;;;;;10492577;28;20058;-40
2023/11/09 04:30:37;;;;;;;8.70;2.10;;;15.60;99.90;;;;;;10491074;28;20049;-47
2023/11/09 04:35:39;;;;;;;6.13;2.60;;;13.30;99.90;;;;;;10499750;28;20094;-40
2023/11/09 04:40:41;;;;;;;6.15;2.47;;;13.90;99.90;;;;;;10500178;28;20075;-32
2023/11/09 04:45:45;;;;;;;5.40;2.90;;;15.80;99.90;;;;;;10490630;28;20497;-32
2023/11/09 04:50:52;;;;;;;7.38;2.90;;;16.50;98.60;;;;;;10494382;28;20963;-36
2023/11/09 04:55:57;;;;;;;9.15;2.88;;;16.70;97.20;;;;;;10497199;28;20040;-31
2023/11/09 05:11:39;;;;;;;5.35;2.80;;;16.20;98.40;;;;;;10489594;28;20048;-31
2023/11/09 05:16:43;;;;;;;4.13;2.28;;;16.00;99.70;;;;;;10489014;28;20543;-32
2023/11/09 05:21:44;;;;;;;8.38;3.00;;;16.00;98.40;;;;;;10495636;28;20044;-32
2023/11/09 05:26:50;;;;;;;4.82;2.80;;;15.50;99.90;;;;;;10460282;28;20060;-36
2023/11/09 05:31:54;;;;;;;6.90;2.50;;;16.40;98.00;;;;;;10460792;28;20144;-40
2023/11/09 05:36:56;;;;;;;3.67;2.20;;;15.30;99.90;;;;;;10463895;28;20122;-37
2023/11/09 05:41:59;;;;;;;7.38;2.35;;;13.70;99.90;;;;;;10465276;28;20142;-34
2023/11/09 05:47:02;;;;;;;8.65;1.90;;;14.00;99.90;;;;;;10458265;28;20049;-31
2023/11/09 05:52:04;;;;;;;4.50;2.30;;;13.30;99.90;;;;;;10465332;28;20051;-31
2023/11/09 05:57:06;;;;;;;17.40;3.05;;;13.60;99.90;;;;;;10469132;28;20032;-31
2023/11/09 06:02:11;;;;;;;7.37;2.20;;;12.60;99.90;;;;;;10459839;28;20466;-39
2023/11/09 06:07:14;;;;;;;17.25;3.20;;;13.90;99.90;;;;;;10455968;28;21372;-34
2023/11/09 06:12:16;;;;;;;10.55;2.58;;;14.50;99.90;;;;;;10447654;28;20076;-37
2023/11/09 06:17:19;;;;;;;7.72;2.25;;;14.50;99.90;;;;;;10456641;28;20048;-41
2023/11/09 06:22:21;;;;;;;28.85;4.22;;;15.20;99.90;;;;;;10456871;28;20393;-36
2023/11/09 06:27:23;;;;;;;2.40;1.60;;;15.10;95.00;;;;;;10455353;28;20057;-34
2023/11/09 06:32:28;;;;;;;11.15;2.70;;;16.20;99.90;;;;;;10462100;28;20170;-35
2023/11/09 06:37:30;;;;;;;9.48;2.50;;;16.40;95.80;;;;;;10456924;28;20059;-34
2023/11/09 06:42:32;;;;;;;4.20;1.52;;;15.90;98.80;;;;;;10457156;28;20052;-36
2023/11/09 06:47:35;;;;;;;12.90;4.50;;;15.50;99.90;;;;;;10454428;28;20064;-34
2023/11/09 06:52:37;;;;;;;14.70;2.42;;;16.00;99.00;;;;;;10451097;28;20485;-33
2023/11/09 06:57:40;;;;;;;21.10;4.30;;;14.30;98.20;;;;;;10453581;28;20060;-39
2023/11/09 07:02:44;;;;;;;10.10;3.25;;;13.80;99.90;;;;;;10457533;28;20573;-34
2023/11/09 07:07:46;;;;;;;15.13;2.30;;;13.00;99.90;;;;;;10456563;28;20413;-37
2023/11/09 07:12:47;;;;;;;5.93;2.35;;;12.50;99.20;;;;;;10455408;28;20497;-31
2023/11/09 07:17:50;;;;;;;12.85;2.85;;;14.10;99.90;;;;;;10460548;28;20036;-37
2023/11/09 07:22:56;;;;;;;13.95;3.13;;;13.00;99.90;;;;;;10463062;28;20114;-35
2023/11/09 07:27:58;;;;;;;11.05;2.50;;;12.30;99.90;;;;;;10459083;28;20131;-35
2023/11/09 07:33:02;;;;;;;14.68;4.13;;;12.10;99.90;;;;;;10454978;28;20225;-38
2023/11/09 07:38:04;;;;;;;13.35;3.17;;;12.70;99.90;;;;;;10446305;28;20102;-52
2023/11/09 07:43:07;;;;;;;19.70;3.33;;;12.90;99.90;;;;;;10451949;28;20056;-38
2023/11/09 07:48:10;;;;;;;17.67;2.83;;;12.40;99.90;;;;;;10448934;28;20032;-38
2023/11/09 07:53:12;;;;;;;18.83;3.40;;;13.70;99.90;;;;;;10445545;28;20178;-43
2023/11/09 07:58:14;;;;;;;18.75;3.45;;;12.30;99.90;;;;;;10443636;28;20044;-37
2023/11/09 08:03:18;;;;;;;14.87;3.17;;;10.90;99.90;;;;;;10455355;28;20761;-31
2023/11/09 08:08:20;;;;;;;17.38;2.58;;;10.40;99.90;;;;;;10455182;28;20040;-34
2023/11/09 08:13:22;;;;;;;17.98;2.40;;;10.40;99.90;;;;;;10449367;28;20070;-31
2023/11/09 08:18:25;;;;;;;24.80;2.30;;;10.40;99.90;;;;;;10444084;28;20040;-34
2023/11/09 08:23:27;;;;;;;15.82;3.05;;;10.40;99.90;;;;;;10446349;28;20037;-38
2023/11/09 08:28:29;;;;;;;9.13;2.45;;;10.40;99.90;;;;;;10447196;28;20462;-38
2023/11/09 08:33:32;;;;;;;7.83;1.93;;;10.60;99.90;;;;;;10451858;28;20041;-35
2023/11/09 08:38:35;;;;;;;10.43;1.83;;;11.80;99.90;;;;;;10446589;28;20086;-37
2023/11/09 08:43:36;;;;;;;7.33;2.50;;;12.80;99.90;;;;;;10449030;28;20045;-36
2023/11/09 08:48:40;;;;;;;11.65;3.25;;;13.30;99.90;;;;;;10440176;28;20538;-35
2023/11/09 08:53:42;;;;;;;17.38;6.15;;;13.60;99.90;;;;;;10447336;28;20147;-38
2023/11/09 08:58:45;;;;;;;17.57;5.53;;;15.00;99.80;;;;;;10446868;28;20089;-34
2023/11/09 09:03:50;;;;;;;14.05;5.60;;;14.10;99.90;;;;;;10455361;28;20086;-34
2023/11/09 09:08:52;;;;;;;21.77;11.18;;;14.90;99.90;;;;;;10464357;28;20061;-40
2023/11/09 09:13:54;;;;;;;20.07;11.70;;;16.30;97.00;;;;;;10455331;28;20045;-41
2023/11/09 09:18:58;;;;;;;17.17;11.60;;;15.20;99.90;;;;;;10455533;28;20132;-36
2023/11/09 09:24:02;;;;;;;18.70;13.82;;;15.10;99.90;;;;;;10459906;28;20475;-30
2023/11/09 09:29:06;;;;;;;23.52;8.27;;;16.10;97.70;;;;;;10461064;28;20690;-36
2023/11/09 09:34:10;;;;;;;14.63;6.60;;;15.60;96.50;;;;;;10457626;28;20049;-37
2023/11/09 09:39:14;;;;;;;19.30;2.63;;;14.30;99.50;;;;;;10459335;28;20044;-39
2023/11/09 09:44:17;;;;;;;18.58;9.35;;;13.00;99.90;;;;;;10454728;28;20128;-32
2023/11/09 09:49:21;;;;;;;19.15;9.32;;;13.50;99.90;;;;;;10458675;28;20175;-42
2023/11/09 09:54:24;;;;;;;24.23;4.25;;;13.80;99.90;;;;;;10463665;28;20080;-36
2023/11/09 09:59:27;;;;;;;14.55;5.18;;;13.80;99.90;;;;;;10460774;28;20049;-39
2023/11/09 10:04:31;;;;;;;16.65;3.90;;;13.60;99.90;;;;;;10456557;28;20055;-33
2023/11/09 10:09:33;;;;;;;15.75;5.68;;;13.10;99.90;;;;;;10450964;28;20045;-39
2023/11/09 10:14:35;;;;;;;16.65;5.50;;;13.20;99.90;;;;;;10448493;28;20071;-31
2023/11/09 10:19:43;;;;;;;13.20;4.63;;;14.20;99.90;;;;;;10457043;28;20115;-35
2023/11/09 10:24:46;;;;;;;14.27;2.53;;;13.60;99.90;;;;;;10459003;28;20497;-31
2023/11/09 10:29:48;;;;;;;15.15;3.83;;;13.40;98.80;;;;;;10451296;28;20053;-32
2023/11/09 10:34:52;;;;;;;22.23;2.70;;;13.60;99.90;;;;;;10446660;28;20229;-35
2023/11/09 10:39:54;;;;;;;13.85;3.05;;;12.80;98.60;;;;;;10456016;28;20438;-33
2023/11/09 10:44:58;;;;;;;18.60;5.70;;;12.80;99.90;;;;;;10459706;28;20037;-36
2023/11/09 10:50:13;;;;;;;10.48;3.35;;;13.50;99.90;;;;;;10460695;28;20048;-44
2023/11/09 10:55:16;;;;;;;7.45;4.60;;;14.70;97.30;;;;;;10461688;28;20124;-35
2023/11/09 11:00:31;;;;;;;10.80;5.03;;;15.10;99.90;;;;;;10463226;28;20059;-36
2023/11/09 11:05:40;;;;;;;14.88;5.97;;;15.50;99.90;;;;;;10459381;28;20044;-45
2023/11/09 11:10:46;;;;;;;12.18;5.85;;;16.20;95.00;;;;;;10457369;28;20047;-31
2023/11/09 11:16:16;;;;;;;10.77;4.85;;;16.60;94.90;;;;;;10454101;28;20468;-38
2023/11/09 11:21:36;;;;;;;8.48;5.82;;;16.00;96.00;;;;;;10454759;28;20049;-45
2023/11/09 11:26:48;;;;;;;10.35;4.80;;;17.00;93.50;;;;;;10449645;28;20350;-33
2023/11/09 11:31:52;;;;;;;9.35;5.35;;;17.10;93.70;;;;;;10453484;28;20131;-34
2023/11/09 11:36:58;;;;;;;9.75;5.50;;;17.30;92.70;;;;;;10450584;28;20063;-41
2023/11/09 11:42:16;;;;;;;12.90;6.00;;;16.90;92.70;;;;;;10457087;28;20036;-33
2023/11/09 11:47:18;;;;;;;18.85;3.42;;;16.30;94.20;;;;;;10452999;28;20044;-34
2023/11/09 11:52:23;;;;;;;11.00;4.50;;;16.30;91.30;;;;;;10460388;28;20060;-37
2023/11/09 11:57:25;;;;;;;14.15;4.72;;;16.40;93.00;;;;;;10445505;28;20053;-31
2023/11/09 12:02:27;;;;;;;12.60;4.35;;;16.10;95.50;;;;;;10454779;28;20370;-32
2023/11/09 12:07:34;;;;;;;7.17;4.20;;;16.10;96.70;;;;;;10450693;28;20159;-33
2023/11/09 12:12:36;;;;;;;7.60;4.22;;;16.50;94.70;;;;;;10448308;28;20058;-38
2023/11/09 12:17:38;;;;;;;14.33;4.43;;;16.30;96.50;;;;;;10441796;28;20043;-36
2023/11/09 12:22:41;;;;;;;13.60;3.37;;;16.60;94.90;;;;;;10447513;28;20575;-32
2023/11/09 12:27:45;;;;;;;11.63;3.42;;;16.40;95.40;;;;;;10450171;28;20044;-38
2023/11/09 12:32:47;;;;;;;9.00;3.15;;;16.00;97.50;;;;;;10455462;28;20084;-40
2023/11/09 12:38:01;;;;;;;6.30;3.40;;;15.50;99.40;;;;;;10455137;28;20049;-36
2023/11/09 12:43:03;;;;;;;11.60;3.38;;;16.30;97.10;;;;;;10460192;28;20139;-35
2023/11/09 12:48:08;;;;;;;7.20;3.58;;;16.80;94.70;;;;;;10463585;28;20048;-41
2023/11/09 12:53:15;;;;;;;11.45;3.00;;;15.80;98.60;;;;;;10454655;28;20056;-38
2023/11/09 12:58:21;;;;;;;13.13;3.63;;;15.90;98.20;;;;;;10452325;28;20040;-36
2023/11/09 13:03:22;;;;;;;21.30;3.92;;;15.90;99.40;;;;;;10454544;28;20477;-37
2023/11/09 13:08:25;;;;;;;36.47;3.27;;;15.90;98.80;;;;;;10457707;28;20132;-32
2023/11/09 13:13:33;;;;;;;7.35;2.53;;;14.40;99.90;;;;;;10454082;28;20191;-32
2023/11/09 13:18:35;;;;;;;8.20;3.20;;;14.80;99.90;;;;;;10447951;28;20044;-34
2023/11/09 13:23:43;;;;;;;14.35;2.90;;;14.40;99.90;;;;;;10456363;28;20379;-46
2023/11/09 13:28:46;;;;;;;13.57;2.60;;;15.20;99.90;;;;;;10445631;28;20045;-35
2023/11/09 13:33:48;;;;;;;14.70;3.35;;;14.90;99.90;;;;;;10444734;28;20045;-34
2023/11/09 13:39:28;;;;;;;11.43;2.90;;;15.60;99.90;;;;;;10457630;28;20132;-34
2023/11/09 13:44:16;;;;;;;12.68;2.20;;;14.80;99.90;;;;;;10452730;28;20060;-36
2023/11/09 13:49:19;;;;;;;11.27;1.73;;;13.30;99.90;;;;;;10447270;28;20043;-41
2023/11/09 13:54:30;;;;;;;;;;;11.70;99.90;;;;;;10450974;28;20124;-36
2023/11/09 13:59:32;;;;;;;4.78;1.60;;;12.00;99.90;;;;;;10446599;28;19921;-31
2023/11/09 14:04:34;;;;;;;15.17;1.70;;;11.50;99.90;;;;;;10450719;28;20133;-34
2023/11/09 14:09:42;;;;;;;7.40;1.95;;;10.70;99.90;;;;;;10459195;28;20074;-33
2023/11/09 14:14:48;;;;;;;6.32;1.60;;;11.60;99.90;;;;;;10449501;28;20060;-32
2023/11/09 14:19:53;;;;;;;7.00;1.38;;;12.00;99.90;;;;;;10436039;28;20041;-35
2023/11/09 14:24:57;;;;;;;6.15;1.35;;;11.40;99.90;;;;;;10449755;28;20482;-36
2023/11/09 14:30:01;;;;;;;5.90;0.95;;;12.40;99.90;;;;;;10449325;28;20068;-35
2023/11/09 14:35:04;;;;;;;9.43;0.95;;;12.00;99.90;;;;;;10452357;28;20040;-36
2023/11/09 14:40:13;;;;;;;5.15;0.43;;;11.80;99.90;;;;;;10456795;28;20044;-36
2023/11/09 14:45:18;;;;;;;4.07;1.33;;;12.30;99.90;;;;;;10451080;28;20040;-34
2023/11/09 14:50:20;;;;;;;2.92;1.40;;;12.40;99.90;;;;;;10454247;28;20056;-34
2023/11/09 14:55:26;;;;;;;3.50;0.97;;;12.30;99.90;;;;;;10442352;28;20174;-34
2023/11/09 15:00:29;;;;;;;6.60;1.75;;;13.30;99.90;;;;;;10456256;28;20080;-36
2023/11/09 15:05:33;;;;;;;6.47;2.20;;;13.20;99.90;;;;;;10452016;28;20044;-31
2023/11/09 15:10:38;;;;;;;3.08;0.95;;;13.30;99.90;;;;;;10451522;28;20071;-34
2023/11/09 15:15:40;;;;;;;1.75;0.98;;;12.20;99.90;;;;;;10445979;28;20164;-35
2023/11/09 15:20:41;;;;;;;3.53;1.75;;;12.40;99.90;;;;;;10447015;28;20040;-33
2023/11/09 15:25:50;;;;;;;4.57;1.30;;;13.80;99.90;;;;;;10458480;28;20047;-31
2023/11/09 15:30:51;;;;;;;3.15;1.13;;;13.70;99.90;;;;;;10447733;28;20033;-32
2023/11/09 15:35:53;;;;;;;2.38;1.30;;;12.20;99.90;;;;;;10451415;28;20115;-34
2023/11/09 15:40:56;;;;;;;4.20;1.40;;;12.10;99.90;;;;;;10446307;28;20436;-43
2023/11/09 15:45:58;;;;;;;8.32;1.67;;;12.00;99.90;;;;;;10447556;28;20040;-33
2023/11/09 15:51:08;;;;;;;2.03;0.80;;;12.80;99.90;;;;;;10455406;28;20121;-39
2023/11/09 15:56:26;;;;;;;3.47;1.70;;;13.60;99.90;;;;;;10452645;28;20449;-34
2023/11/09 16:07:36;;;;;;;9.32;2.10;;;13.00;99.90;;;;;;10451518;28;20051;-39
2023/11/09 16:12:46;;;;;;;7.55;2.53;;;13.40;99.90;;;;;;10447910;28;20049;-32
2023/11/09 16:17:50;;;;;;;7.13;2.05;;;14.50;99.90;;;;;;10453456;28;20490;-31
2023/11/09 16:22:54;;;;;;;9.77;2.22;;;13.90;99.90;;;;;;10451911;28;20075;-33
2023/11/09 16:27:57;;;;;;;7.53;1.60;;;14.40;99.90;;;;;;10451839;28;20060;-35
2023/11/09 16:33:00;;;;;;;12.82;1.95;;;13.80;99.90;;;;;;10455864;28;20041;-33
2023/11/09 16:38:02;;;;;;;10.90;1.50;;;14.00;99.90;;;;;;10456178;28;20056;-35
2023/11/09 16:43:05;;;;;;;10.57;2.03;;;12.70;99.90;;;;;;10455186;28;20041;-33
2023/11/09 16:48:08;;;;;;;8.98;2.22;;;11.40;99.90;;;;;;10451801;28;21016;-32
2023/11/09 16:53:10;;;;;;;7.65;1.40;;;13.90;99.90;;;;;;10446699;28;20037;-30
2023/11/09 16:58:14;;;;;;;6.40;1.47;;;13.60;99.90;;;;;;10447405;28;20063;-43
2023/11/09 17:03:16;;;;;;;1.52;0.68;;;13.60;99.90;;;;;;10453304;28;20063;-42
2023/11/09 17:08:18;;;;;;;3.75;1.00;;;14.70;99.90;;;;;;10443768;28;20060;-40
2023/11/09 17:13:21;;;;;;;6.73;1.23;;;13.00;99.90;;;;;;10440952;28;20052;-34
2023/11/09 17:18:23;;;;;;;4.45;1.42;;;13.20;99.90;;;;;;10454112;28;20044;-36
2023/11/09 17:23:25;;;;;;;4.65;1.85;;;14.20;99.90;;;;;;10456104;28;20047;-33
2023/11/09 17:28:31;;;;;;;4.23;1.83;;;13.80;99.90;;;;;;10462297;28;20041;-33
2023/11/09 17:33:32;;;;;;;2.28;0.93;;;15.00;99.90;;;;;;10463544;28;20416;-41
2023/11/09 17:38:35;;;;;;;4.13;1.20;;;12.40;99.90;;;;;;10458338;28;20045;-32
2023/11/09 17:43:38;;;;;;;5.25;1.40;;;13.10;99.90;;;;;;10457458;28;20076;-35
2023/11/09 17:48:40;;;;;;;3.45;2.15;;;12.60;99.90;;;;;;10457746;28;20469;-31
2023/11/09 17:53:42;;;;;;;2.92;1.13;;;14.00;99.90;;;;;;10458736;28;20048;-34
2023/11/09 17:58:47;;;;;;;2.38;0.98;;;12.90;99.90;;;;;;10461520;28;20057;-37
2023/11/09 18:03:49;;;;;;;4.30;2.20;;;12.80;99.90;;;;;;10456475;28;20052;-36
2023/11/09 18:08:51;;;;;;;8.40;2.92;;;14.30;99.90;;;;;;10458750;28;20082;-38
2023/11/09 18:13:57;;;;;;;9.93;2.00;;;15.60;99.90;;;;;;10449841;28;20053;-32
2023/11/09 18:19:00;;;;;;;3.10;1.38;;;14.90;98.40;;;;;;10461143;28;20045;-37
2023/11/09 18:24:01;;;;;;;;;;;13.80;99.90;;;;;;10461404;28;20051;-31
2023/11/09 18:29:04;;;;;;;7.60;2.10;;;13.40;99.90;;;;;;10458717;28;19963;-35
2023/11/09 18:34:06;;;;;;;6.25;1.95;;;13.70;99.90;;;;;;10459134;28;20129;-37
2023/11/09 18:39:08;;;;;;;9.98;2.00;;;14.30;99.90;;;;;;10460193;28;20040;-39
2023/11/09 18:44:13;;;;;;;4.73;1.47;;;12.20;99.90;;;;;;10452885;28;20032;-39
2023/11/09 18:49:15;;;;;;;6.30;1.92;;;9.80;99.90;;;;;;10449759;28;20052;-38
2023/11/09 18:54:17;;;;;;;4.30;1.13;;;10.80;99.90;;;;;;10448999;28;20151;-32
2023/11/09 18:59:20;;;;;;;3.35;1.25;;;10.70;99.90;;;;;;10441543;28;20048;-37
2023/11/09 19:04:22;;;;;;;8.07;1.60;;;9.90;99.90;;;;;;10436247;28;20059;-38
2023/11/09 19:09:24;;;;;;;6.63;1.48;;;10.20;99.90;;;;;;10428954;28;20515;-35
2023/11/09 19:14:27;;;;;;;3.73;1.20;;;9.80;99.90;;;;;;10444983;28;20511;-36
2023/11/09 19:19:29;;;;;;;;;;;9.40;99.90;;;;;;10450197;28;20086;-35
2023/11/09 19:24:31;;;;;;;5.32;1.52;;;10.10;99.90;;;;;;10444705;28;19923;-35
2023/11/09 19:29:34;;;;;;;5.22;1.77;;;10.30;99.90;;;;;;10445787;28;20131;-40
2023/11/09 19:34:36;;;;;;;;;;;10.20;99.90;;;;;;10453124;28;20552;-35
2023/11/09 19:39:38;;;;;;;5.50;1.35;;;10.90;99.90;;;;;;10454000;28;20074;-53
2023/11/09 19:44:41;;;;;;;2.60;1.30;;;11.00;99.90;;;;;;10450718;28;20051;-34
2023/11/09 19:49:42;;;;;;;;;;;10.90;99.90;;;;;;10448531;28;20142;-40
2023/11/09 19:54:44;;;;;;;5.65;1.50;;;12.00;99.90;;;;;;10455790;28;19959;-42
2023/11/09 19:59:47;;;;;;;7.55;2.55;;;10.90;99.90;;;;;;10452385;28;20090;-32
2023/11/09 20:04:49;;;;;;;5.53;2.72;;;12.00;99.90;;;;;;10449766;28;20127;-33
2023/11/09 20:15:11;;;;;;;5.00;1.23;;;12.40;99.90;;;;;;10439732;28;20679;-36
2023/11/09 20:20:13;;;;;;;3.22;1.55;;;10.90;99.90;;;;;;10446777;28;20508;-40
2023/11/09 20:25:15;;;;;;;2.70;1.30;;;12.30;99.90;;;;;;10450455;28;20070;-34
2023/11/09 20:30:18;;;;;;;1.63;1.17;;;12.80;99.90;;;;;;10454314;28;22170;-30
2023/11/09 20:35:20;;;;;;;4.38;1.30;;;12.30;99.90;;;;;;10447120;28;20044;-31
2023/11/09 20:40:23;;;;;;;3.30;1.05;;;13.70;99.90;;;;;;10454777;28;20785;-40
2023/11/09 20:45:27;;;;;;;2.08;1.00;;;13.30;99.90;;;;;;10450581;28;20739;-31
2023/11/09 20:50:28;;;;;;;6.60;1.35;;;13.50;99.90;;;;;;10449291;28;20037;-35
2023/11/09 20:55:31;;;;;;;1.75;0.85;;;11.60;99.90;;;;;;10457862;28;20448;-32
2023/11/09 21:00:34;;;;;;;5.30;0.90;;;12.00;99.90;;;;;;10458927;28;20040;-42
2023/11/09 21:05:36;;;;;;;2.58;0.82;;;11.10;99.90;;;;;;10457700;28;20554;-35
2023/11/09 21:10:38;;;;;;;5.70;1.45;;;12.00;99.90;;;;;;10455082;28;20458;-33
2023/11/09 21:15:41;;;;;;;2.35;1.30;;;10.40;99.90;;;;;;10453489;28;20140;-39
2023/11/09 21:20:43;;;;;;;5.47;1.50;;;11.10;99.90;;;;;;10462042;28;20060;-33
2023/11/09 21:25:47;;;;;;;5.23;1.67;;;12.40;99.90;;;;;;10463647;28;20036;-39
2023/11/09 21:30:51;;;;;;;5.63;1.38;;;11.50;99.90;;;;;;10457212;28;20231;-34
2023/11/09 21:35:52;;;;;;;6.22;1.60;;;11.20;99.90;;;;;;10450155;28;20136;-40
2023/11/09 21:40:54;;;;;;;4.78;1.20;;;11.30;99.90;;;;;;10453815;28;20553;-31
2023/11/09 21:45:58;;;;;;;1.80;1.10;;;11.20;99.90;;;;;;10459450;28;23730;-35
2023/11/09 21:51:00;;;;;;;3.50;1.55;;;11.00;99.90;;;;;;10452623;28;20040;-33
2023/11/09 21:56:03;;;;;;;1.48;1.00;;;10.80;99.90;;;;;;10444012;28;20073;-31
2023/11/09 22:01:06;;;;;;;6.75;1.15;;;11.60;99.90;;;;;;10451876;28;20501;-37
2023/11/09 22:06:09;;;;;;;4.20;1.20;;;11.30;99.90;;;;;;10453016;28;20517;-32
2023/11/09 22:11:11;;;;;;;2.40;1.23;;;10.90;99.90;;;;;;10458212;28;20056;-37
2023/11/09 22:16:14;;;;;;;3.78;1.13;;;10.50;99.90;;;;;;10455807;28;20063;-40
2023/11/09 22:21:21;;;;;;;2.85;1.17;;;9.70;99.90;;;;;;10449759;28;20037;-42
2023/11/09 22:26:23;;;;;;;2.72;1.20;;;10.90;99.90;;;;;;10454984;28;20068;-37
2023/11/09 22:31:27;;;;;;;8.70;3.45;;;11.30;99.90;;;;;;10452617;28;20055;-36
2023/11/09 22:36:29;;;;;;;5.60;1.38;;;11.70;99.90;;;;;;10454005;28;20090;-31
2023/11/09 22:41:32;;;;;;;3.20;1.10;;;10.50;99.90;;;;;;10446294;28;20067;-30
2023/11/09 22:46:41;;;;;;;3.85;1.40;;;11.00;99.90;;;;;;10422103;28;20470;-35
2023/11/09 22:51:42;;;;;;;3.50;1.20;;;11.20;99.90;;;;;;10456199;28;20194;-35
2023/11/09 22:56:44;;;;;;;1.90;0.85;;;11.80;99.90;;;;;;10449252;28;20057;-32
2023/11/09 23:01:48;;;;;;;8.35;1.83;;;10.60;99.90;;;;;;10450445;28;20722;-32
2023/11/09 23:06:49;;;;;;;2.90;0.70;;;11.00;99.90;;;;;;10455726;28;20366;-38
2023/11/09 23:11:51;;;;;;;7.60;1.50;;;10.50;99.90;;;;;;10444526;28;20090;-32
2023/11/09 23:16:54;;;;;;;2.88;1.00;;;10.10;99.90;;;;;;10442057;28;20056;-51
2023/11/09 23:21:56;;;;;;;;;;;10.50;99.90;;;;;;10456474;28;20555;-32
2023/11/09 23:26:58;;;;;;;1.75;0.90;;;10.40;99.90;;;;;;10454276;28;19932;-32
2023/11/09 23:32:03;;;;;;;2.75;1.08;;;10.60;99.90;;;;;;10455302;28;20175;-33
2023/11/09 23:37:05;;;;;;;1.80;0.98;;;12.40;99.90;;;;;;10454726;28;20135;-34
2023/11/09 23:42:07;;;;;;;1.40;1.00;;;12.30;99.90;;;;;;10457235;28;20087;-32
2023/11/09 23:47:11;;;;;;;4.33;1.33;;;12.40;99.90;;;;;;10452418;28;20051;-31
2023/11/09 23:52:14;;;;;;;3.58;1.20;;;13.00;99.90;;;;;;10450950;28;20041;-38
2023/11/09 23:57:16;;;;;;;7.28;1.00;;;13.30;99.90;;;;;;10447686;28;20485;-35
